Terminal Aerodrome Forecast
Issued by NWS

Home | Current Version | Previous Version | Text Only | Print | Product List | Glossary On
Versions: 1 2 3 4 5 6 7 8 9 10 11 12 13
000
FTUS43 KPAH 151000 AAA
TAFOWB
TAF AMD
KOWB 151024Z 1510/1606 33013G20KT P6SM FEW025 BKN035
     FM151400 34014G22KT P6SM SCT045
     FM160000 VRB03KT P6SM SKC=

USA.gov is the U.S. government's official web portal to all federal, state and local government web resources and services.